Time;durP1;ratioP1;P1;durP2;ratioP2;P2;SDS_P1;SDS_P2;PMS_P1;PMS_P2;Temp;Humidity;BMP_temperature;BMP_pressure;BME280_temperature;BME280_humidity;BME280_pressure;Samples;Min_cycle;Max_cycle;Signal;HPM_P1;HPM_P2
2023/08/04 00:00:23;;;;;;;6.97;1.67;;;13.90;99.90;;;;;;5115266;28;20166;-49
2023/08/04 00:03:05;;;;;;;7.47;1.90;;;13.80;99.90;;;;;;5113232;28;20222;-48
2023/08/04 00:05:32;;;;;;;7.20;1.80;;;13.90;99.90;;;;;;5097362;28;20278;-48
2023/08/04 00:08:00;;;;;;;7.83;1.93;;;13.80;99.90;;;;;;5115354;28;20524;-49
2023/08/04 00:10:26;;;;;;;11.07;2.60;;;13.80;99.90;;;;;;5096912;28;20185;-49
2023/08/04 00:12:58;;;;;;;5.27;2.10;;;13.80;99.90;;;;;;5114981;28;20193;-50
2023/08/04 00:15:30;;;;;;;7.27;2.50;;;13.80;99.90;;;;;;5114826;28;20719;-49
2023/08/04 00:17:57;;;;;;;7.97;2.10;;;13.80;99.90;;;;;;5114078;28;20599;-49
2023/08/04 00:20:24;;;;;;;4.60;1.80;;;13.80;99.90;;;;;;5114745;28;20277;-48
2023/08/04 00:22:50;;;;;;;7.70;2.40;;;13.80;99.90;;;;;;5114782;28;20205;-51
2023/08/04 00:25:37;;;;;;;4.23;1.60;;;13.80;99.90;;;;;;5114184;28;20182;-49
2023/08/04 00:28:04;;;;;;;7.13;2.10;;;13.80;99.90;;;;;;5114846;28;20614;-49
2023/08/04 00:30:32;;;;;;;5.80;2.20;;;13.80;99.90;;;;;;5111954;28;20200;-49
2023/08/04 00:33:02;;;;;;;3.43;1.50;;;13.80;99.90;;;;;;5111348;28;20235;-50
2023/08/04 00:35:29;;;;;;;5.93;2.50;;;13.80;99.90;;;;;;5114750;28;20194;-49
2023/08/04 00:37:54;;;;;;;9.10;2.70;;;13.80;99.90;;;;;;5114717;28;20571;-49
2023/08/04 00:40:20;;;;;;;6.33;2.00;;;13.90;99.90;;;;;;5114437;28;20209;-48
2023/08/04 00:42:46;;;;;;;9.93;2.60;;;13.90;99.90;;;;;;5096101;28;20212;-49
2023/08/04 00:45:11;;;;;;;12.20;2.83;;;13.90;99.90;;;;;;5096268;28;20181;-48
2023/08/04 00:47:38;;;;;;;6.60;2.40;;;14.00;99.90;;;;;;5095869;28;20206;-48
2023/08/04 00:50:06;;;;;;;9.90;2.50;;;14.00;99.90;;;;;;5096047;28;20190;-49
2023/08/04 00:52:32;;;;;;;7.67;2.90;;;14.10;99.90;;;;;;5095824;28;20206;-47
2023/08/04 00:54:57;;;;;;;7.67;2.57;;;14.10;99.90;;;;;;5095898;28;20539;-48
2023/08/04 00:57:23;;;;;;;8.63;2.40;;;14.10;99.90;;;;;;5115325;28;20221;-49
2023/08/04 00:59:49;;;;;;;8.17;2.80;;;14.20;99.90;;;;;;5114389;28;20186;-49
2023/08/04 01:02:15;;;;;;;5.47;3.17;;;14.10;99.90;;;;;;5114570;28;20197;-48
2023/08/04 01:04:40;;;;;;;7.80;2.70;;;14.10;99.90;;;;;;5095592;28;20185;-50
2023/08/04 01:07:23;;;;;;;9.87;2.90;;;14.20;99.90;;;;;;5114273;28;20218;-48
2023/08/04 01:10:22;;;;;;;13.53;3.30;;;14.20;99.90;;;;;;5114325;28;20174;-49
2023/08/04 01:13:03;;;;;;;10.77;3.53;;;14.10;99.90;;;;;;5113341;28;20254;-50
2023/08/04 01:15:30;;;;;;;9.20;3.03;;;14.20;99.90;;;;;;5096845;28;20569;-49
2023/08/04 01:17:57;;;;;;;8.50;3.27;;;14.30;99.90;;;;;;5113910;28;20178;-48
2023/08/04 01:20:24;;;;;;;9.90;3.60;;;14.20;99.90;;;;;;5113864;28;20188;-49
2023/08/04 01:22:50;;;;;;;7.77;2.97;;;14.30;99.90;;;;;;5096303;28;20224;-44
2023/08/04 01:25:16;;;;;;;11.17;3.37;;;14.20;99.90;;;;;;5113708;28;20257;-43
2023/08/04 01:27:56;;;;;;;9.20;3.53;;;14.20;99.90;;;;;;5114362;28;20221;-45
2023/08/04 01:30:25;;;;;;;5.83;2.97;;;14.30;99.90;;;;;;5114163;28;20697;-43
2023/08/04 01:32:51;;;;;;;7.40;3.37;;;14.30;99.90;;;;;;5114070;28;20206;-42
2023/08/04 01:35:17;;;;;;;10.40;3.40;;;14.30;99.90;;;;;;5113701;28;20217;-44
2023/08/04 01:37:45;;;;;;;8.90;4.00;;;14.30;99.90;;;;;;5113752;28;20654;-42
2023/08/04 01:40:12;;;;;;;11.00;3.57;;;14.30;99.90;;;;;;5113843;28;20192;-44
2023/08/04 01:42:37;;;;;;;9.80;3.30;;;14.30;99.90;;;;;;5113863;28;20198;-43
2023/08/04 01:45:03;;;;;;;14.57;3.57;;;14.30;99.90;;;;;;5095555;28;20186;-44
2023/08/04 01:47:29;;;;;;;9.63;3.70;;;14.30;99.90;;;;;;5095312;28;20231;-42
2023/08/04 01:49:55;;;;;;;11.43;3.80;;;14.30;99.90;;;;;;5095418;28;20188;-44
2023/08/04 01:52:23;;;;;;;8.70;3.47;;;14.30;99.90;;;;;;5095216;28;20198;-43
2023/08/04 01:54:49;;;;;;;9.13;3.53;;;14.30;99.90;;;;;;5113526;28;20326;-44
2023/08/04 01:57:14;;;;;;;13.90;4.10;;;14.30;99.90;;;;;;5113480;28;20277;-44
2023/08/04 01:59:40;;;;;;;16.33;3.97;;;14.30;99.90;;;;;;5113540;28;20288;-43
2023/08/04 02:02:07;;;;;;;11.70;4.10;;;14.30;99.90;;;;;;5095382;28;20653;-43
2023/08/04 02:04:32;;;;;;;13.77;3.90;;;14.30;99.90;;;;;;5095484;28;20259;-43
2023/08/04 02:06:58;;;;;;;11.13;3.73;;;14.30;99.90;;;;;;5113924;28;20205;-44
2023/08/04 02:09:27;;;;;;;12.70;3.67;;;14.40;99.90;;;;;;5095164;28;20730;-46
2023/08/04 02:11:54;;;;;;;8.17;3.60;;;14.40;99.90;;;;;;5095280;28;20194;-45
2023/08/04 02:14:19;;;;;;;9.87;3.70;;;14.40;99.90;;;;;;5113362;28;20642;-42
2023/08/04 02:16:45;;;;;;;10.43;4.23;;;14.30;99.90;;;;;;5113362;28;20262;-44
2023/08/04 02:19:11;;;;;;;11.10;3.77;;;14.40;99.90;;;;;;5113556;28;20192;-44
2023/08/04 02:21:37;;;;;;;10.40;4.33;;;14.40;99.90;;;;;;5113336;28;20259;-42
2023/08/04 02:24:03;;;;;;;12.40;3.53;;;14.40;99.90;;;;;;5113869;28;20234;-43
2023/08/04 02:26:29;;;;;;;14.70;3.80;;;14.40;99.90;;;;;;5117052;28;20277;-43
2023/08/04 02:28:55;;;;;;;8.90;3.83;;;14.40;99.90;;;;;;5117342;28;20599;-43
2023/08/04 02:31:23;;;;;;;12.37;4.20;;;14.40;99.90;;;;;;5117015;28;20295;-44
2023/08/04 02:33:49;;;;;;;9.60;4.23;;;14.40;99.90;;;;;;5117162;28;20193;-43
2023/08/04 02:36:15;;;;;;;11.23;4.53;;;14.40;99.90;;;;;;5116842;28;20204;-44
2023/08/04 02:38:41;;;;;;;12.77;4.27;;;14.40;99.90;;;;;;5116804;28;20174;-43
2023/08/04 02:41:09;;;;;;;14.63;4.10;;;14.40;99.90;;;;;;5116767;28;20197;-43
2023/08/04 02:43:35;;;;;;;16.10;4.33;;;14.40;99.90;;;;;;5098426;28;20217;-43
2023/08/04 02:46:01;;;;;;;14.17;4.47;;;14.30;99.90;;;;;;5098625;28;20285;-44
2023/08/04 02:48:26;;;;;;;13.97;4.63;;;14.40;99.90;;;;;;5116617;28;20306;-43
2023/08/04 02:51:03;;;;;;;17.33;4.60;;;14.40;99.90;;;;;;5116505;28;20275;-43
2023/08/04 02:53:29;;;;;;;18.07;4.77;;;14.40;99.90;;;;;;5116892;28;20545;-43
2023/08/04 02:55:55;;;;;;;12.87;4.30;;;14.40;99.90;;;;;;5098479;28;20210;-43
2023/08/04 02:58:23;;;;;;;11.87;4.90;;;14.40;99.90;;;;;;5098263;28;20200;-44
2023/08/04 03:00:49;;;;;;;14.00;4.73;;;14.40;99.90;;;;;;5098221;28;20202;-42
2023/08/04 03:03:15;;;;;;;14.47;4.27;;;14.40;99.90;;;;;;5098284;28;20202;-44
2023/08/04 03:05:41;;;;;;;14.03;4.27;;;14.40;99.90;;;;;;5117864;28;20216;-42
2023/08/04 03:08:06;;;;;;;12.23;4.90;;;14.40;99.90;;;;;;5117786;28;20277;-45
2023/08/04 03:10:32;;;;;;;8.87;4.30;;;14.40;99.90;;;;;;5117674;28;20218;-44
2023/08/04 03:12:57;;;;;;;13.47;4.97;;;14.40;99.90;;;;;;5116432;28;20192;-44
2023/08/04 03:15:23;;;;;;;16.17;4.70;;;14.40;99.90;;;;;;5116076;28;20239;-44
2023/08/04 03:17:50;;;;;;;8.03;4.57;;;14.30;99.90;;;;;;5116724;28;20629;-43
2023/08/04 03:20:16;;;;;;;12.53;4.73;;;14.40;99.90;;;;;;5116188;28;20238;-45
2023/08/04 03:22:42;;;;;;;11.40;4.57;;;14.30;99.90;;;;;;5116324;28;20218;-43
2023/08/04 03:25:09;;;;;;;13.93;4.77;;;14.40;99.90;;;;;;5115968;28;20174;-43
2023/08/04 03:27:36;;;;;;;13.53;5.13;;;14.30;99.90;;;;;;5115910;28;20201;-44
2023/08/04 03:30:02;;;;;;;13.40;5.03;;;14.30;99.90;;;;;;5116576;28;20538;-44
2023/08/04 03:32:28;;;;;;;11.63;4.63;;;14.30;99.90;;;;;;5115820;28;20190;-44
2023/08/04 03:34:54;;;;;;;11.30;4.43;;;14.30;99.90;;;;;;5116139;28;20587;-44
2023/08/04 03:37:19;;;;;;;11.23;4.10;;;14.40;99.90;;;;;;5115257;28;20688;-43
2023/08/04 03:39:45;;;;;;;13.47;5.73;;;14.30;99.90;;;;;;5097839;28;20233;-43
2023/08/04 03:42:11;;;;;;;12.93;4.70;;;14.30;99.90;;;;;;5097832;28;20178;-45
2023/08/04 03:44:37;;;;;;;10.03;4.60;;;14.30;99.90;;;;;;5097506;28;20197;-42
2023/08/04 03:47:03;;;;;;;11.70;4.90;;;14.30;99.90;;;;;;5097772;28;20210;-43
2023/08/04 03:49:28;;;;;;;13.87;4.60;;;14.30;99.90;;;;;;5116326;28;20178;-44
2023/08/04 03:51:54;;;;;;;8.90;4.47;;;14.30;99.90;;;;;;5116689;28;20228;-43
2023/08/04 03:54:19;;;;;;;14.30;4.60;;;14.30;99.90;;;;;;5097919;28;20245;-44
2023/08/04 03:56:45;;;;;;;14.80;4.77;;;14.30;99.90;;;;;;5115734;28;20232;-49
2023/08/04 03:59:12;;;;;;;15.80;5.00;;;14.30;99.90;;;;;;5116021;28;20193;-48
2023/08/04 04:01:38;;;;;;;18.70;5.07;;;14.30;99.90;;;;;;5115920;28;20184;-44
2023/08/04 04:04:04;;;;;;;11.53;5.37;;;14.20;99.90;;;;;;5080775;28;20214;-43
2023/08/04 04:06:30;;;;;;;10.70;5.43;;;14.20;99.90;;;;;;5115630;28;20743;-50
2023/08/04 04:08:55;;;;;;;10.17;4.43;;;14.20;99.90;;;;;;5115800;28;20184;-44
2023/08/04 04:11:21;;;;;;;11.20;5.27;;;14.20;99.90;;;;;;5114941;28;20645;-43
2023/08/04 04:13:46;;;;;;;13.20;5.00;;;14.20;99.90;;;;;;5096616;28;20192;-45
2023/08/04 04:16:12;;;;;;;10.50;4.80;;;14.30;99.90;;;;;;5097508;28;20245;-44
2023/08/04 04:18:38;;;;;;;15.80;4.77;;;14.20;99.90;;;;;;5115437;28;20178;-43
2023/08/04 04:21:03;;;;;;;11.50;4.33;;;14.20;99.90;;;;;;5096835;28;20214;-43
2023/08/04 04:23:29;;;;;;;13.73;4.13;;;14.30;99.90;;;;;;5096490;28;20209;-44
2023/08/04 04:25:54;;;;;;;10.63;4.77;;;14.20;99.90;;;;;;5114659;28;20284;-42
2023/08/04 04:28:20;;;;;;;11.20;4.60;;;14.20;99.90;;;;;;5096484;28;20182;-44
2023/08/04 04:30:46;;;;;;;13.80;4.57;;;14.20;99.90;;;;;;5114691;28;20181;-43
2023/08/04 04:33:11;;;;;;;9.23;4.60;;;14.20;99.90;;;;;;5114759;28;20188;-43
2023/08/04 04:35:37;;;;;;;15.67;4.53;;;14.20;99.90;;;;;;5114510;28;20205;-42
2023/08/04 04:38:02;;;;;;;17.83;5.40;;;14.20;99.90;;;;;;5114703;28;20182;-42
2023/08/04 04:40:28;;;;;;;11.47;4.23;;;14.20;99.90;;;;;;5114686;28;20314;-45
2023/08/04 04:42:54;;;;;;;15.07;5.10;;;14.30;99.90;;;;;;5096144;28;20217;-43
2023/08/04 04:45:19;;;;;;;10.60;4.40;;;14.20;99.90;;;;;;5096135;28;20189;-43
2023/08/04 04:47:45;;;;;;;10.27;4.70;;;14.30;99.90;;;;;;5095876;28;20182;-43
2023/08/04 04:50:11;;;;;;;11.03;4.47;;;14.30;99.90;;;;;;5096450;28;20197;-43
2023/08/04 04:52:37;;;;;;;13.63;4.40;;;14.30;99.90;;;;;;5079199;28;20202;-42
2023/08/04 04:55:04;;;;;;;14.97;4.33;;;14.30;99.90;;;;;;5114581;28;20204;-43
2023/08/04 04:57:30;;;;;;;9.87;4.50;;;14.30;99.90;;;;;;5114073;28;20214;-42
2023/08/04 04:59:56;;;;;;;13.13;4.97;;;14.30;99.90;;;;;;5114452;28;20186;-43
2023/08/04 05:02:22;;;;;;;11.40;4.80;;;14.30;99.90;;;;;;5114149;28;20182;-44
2023/08/04 05:04:48;;;;;;;12.07;4.67;;;14.30;99.90;;;;;;5095925;28;20196;-43
2023/08/04 05:07:14;;;;;;;9.63;4.03;;;14.30;99.90;;;;;;5114347;28;20653;-43
2023/08/04 05:09:40;;;;;;;13.97;4.80;;;14.30;99.90;;;;;;5114061;28;20209;-44
2023/08/04 05:12:06;;;;;;;13.03;4.87;;;14.40;99.90;;;;;;5114078;28;20174;-45
2023/08/04 05:14:36;;;;;;;10.60;4.40;;;14.40;99.90;;;;;;5114022;28;20245;-44
2023/08/04 05:17:02;;;;;;;9.47;4.30;;;14.40;99.90;;;;;;5114799;28;20554;-44
2023/08/04 05:19:27;;;;;;;14.53;4.80;;;14.40;99.90;;;;;;5095677;28;20193;-43
2023/08/04 05:21:53;;;;;;;10.63;4.40;;;14.40;99.90;;;;;;5113898;28;20716;-45
2023/08/04 05:24:18;;;;;;;12.03;4.60;;;14.50;99.90;;;;;;5095594;28;20202;-43
2023/08/04 05:26:44;;;;;;;11.67;4.70;;;14.50;99.90;;;;;;5113872;28;20269;-43
2023/08/04 05:29:09;;;;;;;10.67;4.27;;;14.50;99.90;;;;;;5113938;28;20653;-43
2023/08/04 05:31:35;;;;;;;10.83;3.90;;;14.50;99.90;;;;;;5114861;28;20311;-41
2023/08/04 05:34:01;;;;;;;13.07;4.53;;;14.60;99.90;;;;;;5095599;28;20192;-41
2023/08/04 05:36:27;;;;;;;12.00;5.03;;;14.60;99.90;;;;;;5113758;28;20198;-45
2023/08/04 05:38:53;;;;;;;8.97;4.53;;;14.60;99.90;;;;;;5095494;28;20209;-44
2023/08/04 05:41:19;;;;;;;13.20;4.60;;;14.60;99.90;;;;;;5113783;28;20185;-43
2023/08/04 05:43:45;;;;;;;14.80;5.23;;;14.60;99.90;;;;;;5113665;28;20205;-42
2023/08/04 05:46:15;;;;;;;13.10;5.20;;;14.60;99.90;;;;;;5113899;28;20285;-44
2023/08/04 05:48:41;;;;;;;10.30;5.67;;;14.60;99.90;;;;;;5113983;28;20170;-44
2023/08/04 05:51:07;;;;;;;14.30;4.73;;;14.70;99.90;;;;;;5113564;28;20193;-41
2023/08/04 05:53:33;;;;;;;9.60;4.67;;;14.70;99.90;;;;;;5114271;28;20180;-46
2023/08/04 05:55:58;;;;;;;14.40;5.70;;;14.70;99.90;;;;;;5113818;28;20700;-47
2023/08/04 05:58:24;;;;;;;10.33;4.63;;;14.70;99.90;;;;;;5113521;28;20586;-43
2023/08/04 06:00:49;;;;;;;9.60;4.33;;;14.70;99.90;;;;;;5098837;28;20179;-46
2023/08/04 06:03:18;;;;;;;10.00;4.83;;;14.80;99.90;;;;;;5117766;28;20569;-45
2023/08/04 06:05:45;;;;;;;13.70;5.30;;;14.80;99.90;;;;;;5114156;28;20231;-43
2023/08/04 06:08:14;;;;;;;13.70;5.97;;;14.80;99.90;;;;;;5095336;28;20272;-43
2023/08/04 06:10:45;;;;;;;11.27;4.63;;;14.80;99.90;;;;;;5117407;28;20209;-45
2023/08/04 06:13:22;;;;;;;12.17;5.10;;;14.80;99.90;;;;;;5114058;28;20193;-43
2023/08/04 06:16:10;;;;;;;9.43;4.93;;;14.90;99.90;;;;;;5108754;28;20202;-43
2023/08/04 06:19:04;;;;;;;13.17;5.07;;;14.90;99.90;;;;;;5115227;28;20647;-43
2023/08/04 06:22:17;;;;;;;12.30;5.20;;;14.90;99.90;;;;;;5054144;28;20192;-43
2023/08/04 08:05:12;;;;;;;13.60;5.33;;;17.20;99.90;;;;;;5109870;28;20198;-49
2023/08/04 08:07:37;;;;;;;13.90;5.50;;;17.30;99.90;;;;;;5115396;28;20751;-47
2023/08/04 08:10:03;;;;;;;11.43;5.13;;;17.40;99.90;;;;;;5115295;28;20190;-48
2023/08/04 08:12:29;;;;;;;15.07;5.33;;;17.50;99.90;;;;;;5115112;28;20239;-48
2023/08/04 08:14:55;;;;;;;14.03;4.97;;;17.60;99.90;;;;;;5115042;28;20182;-49
2023/08/04 08:17:32;;;;;;;12.30;5.07;;;17.60;99.90;;;;;;5096686;28;20210;-49
2023/08/04 08:20:06;;;;;;;9.37;4.87;;;17.70;99.90;;;;;;5097167;28;20268;-49
2023/08/04 08:22:32;;;;;;;8.13;4.47;;;17.80;99.90;;;;;;5113638;28;20200;-48
2023/08/04 08:24:58;;;;;;;13.40;6.07;;;17.90;99.90;;;;;;5096483;28;20182;-48
2023/08/04 08:27:24;;;;;;;8.80;4.80;;;18.00;99.90;;;;;;5096536;28;20240;-49
2023/08/04 08:29:54;;;;;;;12.10;6.10;;;18.00;99.90;;;;;;5096712;28;20526;-48
2023/08/04 08:32:20;;;;;;;12.93;5.37;;;18.10;99.90;;;;;;5096453;28;20182;-48
2023/08/04 08:34:46;;;;;;;10.93;4.80;;;18.10;99.90;;;;;;5114707;28;20169;-48
2023/08/04 08:37:12;;;;;;;12.33;5.03;;;18.10;99.90;;;;;;5114632;28;20619;-48
2023/08/04 08:39:38;;;;;;;9.70;4.10;;;18.20;99.90;;;;;;5096613;28;20225;-49
2023/08/04 08:42:04;;;;;;;11.53;4.47;;;18.20;99.90;;;;;;5096542;28;20676;-48
2023/08/04 08:44:30;;;;;;;13.30;4.70;;;18.30;99.90;;;;;;5115094;28;20217;-48
2023/08/04 08:46:57;;;;;;;8.93;4.30;;;18.40;99.90;;;;;;5114469;28;20566;-48
2023/08/04 08:49:38;;;;;;;9.67;3.77;;;18.50;99.90;;;;;;5079973;28;20194;-48
2023/08/04 08:52:10;;;;;;;11.33;3.83;;;18.60;99.90;;;;;;5114356;28;20186;-51
2023/08/04 08:54:37;;;;;;;10.20;3.57;;;18.50;99.90;;;;;;5115084;28;20571;-48
2023/08/04 08:57:06;;;;;;;12.93;3.67;;;18.50;99.90;;;;;;5096497;28;20214;-49
2023/08/04 08:59:34;;;;;;;11.00;4.03;;;18.50;99.90;;;;;;5096878;28;20600;-48
2023/08/04 09:02:10;;;;;;;12.00;3.87;;;18.60;99.90;;;;;;5115173;28;20586;-49
2023/08/04 09:04:38;;;;;;;4.33;3.17;;;18.70;99.90;;;;;;5079674;28;20212;-49
2023/08/04 09:07:13;;;;;;;9.43;3.10;;;18.60;99.90;;;;;;5095835;28;20276;-49
2023/08/04 09:09:42;;;;;;;5.20;2.53;;;18.70;99.90;;;;;;5079353;28;20182;-49
2023/08/04 09:12:09;;;;;;;5.43;2.67;;;18.70;99.90;;;;;;5079293;28;20270;-48
2023/08/04 09:15:06;;;;;;;5.77;2.70;;;18.70;99.90;;;;;;5115534;28;20542;-49
2023/08/04 09:17:41;;;;;;;10.77;4.17;;;18.90;99.90;;;;;;5096734;28;20248;-49
2023/08/04 09:20:53;;;;;;;11.80;3.87;;;19.10;99.90;;;;;;5096348;28;20186;-49
2023/08/04 09:24:22;;;;;;;10.93;3.67;;;19.30;99.90;;;;;;5095762;28;20690;-50
2023/08/04 09:33:43;;;;;;;13.80;3.53;;;19.60;99.90;;;;;;5115114;28;20178;-50
2023/08/04 09:36:18;;;;;;;4.87;3.13;;;19.40;99.90;;;;;;5118135;28;20209;-49
2023/08/04 09:38:45;;;;;;;7.63;3.23;;;19.20;99.90;;;;;;5119396;28;20177;-49
2023/08/04 09:41:14;;;;;;;5.70;2.93;;;19.20;99.90;;;;;;5100324;28;20190;-48
2023/08/04 09:43:54;;;;;;;5.13;2.73;;;19.20;99.90;;;;;;5118022;28;20684;-49
2023/08/04 09:46:22;;;;;;;5.47;2.60;;;19.30;99.90;;;;;;5117705;28;20572;-48
2023/08/04 09:49:05;;;;;;;7.20;2.77;;;19.60;99.90;;;;;;5118293;28;20251;-49
2023/08/04 09:51:43;;;;;;;6.20;3.07;;;19.90;99.90;;;;;;5098828;28;20190;-50
2023/08/04 09:54:11;;;;;;;10.23;2.77;;;20.10;99.90;;;;;;5097586;28;20198;-50
2023/08/04 09:56:37;;;;;;;4.40;2.30;;;20.50;99.90;;;;;;5118937;28;20214;-49
2023/08/04 09:59:07;;;;;;;5.30;2.00;;;20.80;99.90;;;;;;5117858;28;20715;-50
2023/08/04 10:01:36;;;;;;;3.13;1.90;;;21.20;99.90;;;;;;5099867;28;20186;-50
2023/08/04 10:04:03;;;;;;;11.27;1.83;;;21.40;99.90;;;;;;5099351;28;20582;-50
2023/08/04 10:06:30;;;;;;;3.83;1.70;;;21.30;99.90;;;;;;5099402;28;20571;-51
2023/08/04 10:09:06;;;;;;;3.47;1.57;;;21.30;99.90;;;;;;5117942;28;20270;-51
2023/08/04 10:11:32;;;;;;;3.07;1.43;;;21.20;99.90;;;;;;5118312;28;20182;-51
2023/08/04 10:14:05;;;;;;;4.30;1.50;;;21.10;99.90;;;;;;5099372;28;20190;-49
2023/08/04 10:16:36;;;;;;;5.73;1.80;;;21.00;99.90;;;;;;5099007;28;20609;-51
2023/08/04 10:19:09;;;;;;;4.67;1.50;;;21.00;99.90;;;;;;5099232;28;20182;-51
2023/08/04 10:21:42;;;;;;;3.03;1.70;;;20.90;99.90;;;;;;5082749;28;20182;-50
2023/08/04 10:24:09;;;;;;;4.17;1.73;;;20.90;99.90;;;;;;5117278;28;20202;-50
2023/08/04 10:26:45;;;;;;;4.37;1.77;;;21.00;99.90;;;;;;5117028;28;20206;-50
2023/08/04 10:29:11;;;;;;;6.47;2.10;;;21.00;99.90;;;;;;5098917;28;20189;-50
2023/08/04 10:31:55;;;;;;;2.93;1.70;;;21.10;99.90;;;;;;5082191;28;20553;-50
2023/08/04 10:34:41;;;;;;;5.83;2.03;;;21.20;99.90;;;;;;5117437;28;20659;-51
2023/08/04 10:37:19;;;;;;;6.83;1.70;;;21.30;99.90;;;;;;5098683;28;20236;-50
2023/08/04 10:40:07;;;;;;;5.73;2.50;;;21.40;99.90;;;;;;5098805;28;20298;-49
2023/08/04 10:42:57;;;;;;;4.20;2.13;;;21.40;99.90;;;;;;5117011;28;20194;-49
2023/08/04 10:45:23;;;;;;;2.67;1.77;;;21.50;99.90;;;;;;5116825;28;20194;-49
2023/08/04 10:47:53;;;;;;;4.30;2.10;;;21.50;99.90;;;;;;5116713;28;20211;-49
2023/08/04 10:50:21;;;;;;;3.27;1.67;;;21.60;99.90;;;;;;5116831;28;20228;-49
2023/08/04 10:52:47;;;;;;;2.70;1.30;;;21.60;99.90;;;;;;5116835;28;20166;-50
2023/08/04 10:55:14;;;;;;;4.27;1.60;;;21.70;99.90;;;;;;5116865;28;20201;-51
2023/08/04 10:57:42;;;;;;;2.73;1.43;;;21.90;99.90;;;;;;5116890;28;20706;-50
2023/08/04 11:00:10;;;;;;;2.80;1.40;;;22.00;99.90;;;;;;5116729;28;20182;-49
2023/08/04 11:02:37;;;;;;;2.80;1.60;;;21.90;99.90;;;;;;5116553;28;20178;-51
2023/08/04 11:05:08;;;;;;;6.97;2.07;;;21.90;99.90;;;;;;5098302;28;20190;-51
2023/08/04 11:07:35;;;;;;;3.73;1.80;;;21.90;99.90;;;;;;5116559;28;20271;-50
2023/08/04 11:10:18;;;;;;;3.60;1.63;;;21.90;99.90;;;;;;5098763;28;20194;-52
2023/08/04 11:12:44;;;;;;;5.40;1.73;;;21.90;99.90;;;;;;5081572;28;20182;-51
2023/08/04 11:15:11;;;;;;;4.87;1.70;;;22.00;99.90;;;;;;5098330;28;20649;-52
2023/08/04 11:17:41;;;;;;;2.87;1.40;;;22.20;99.90;;;;;;5099165;28;20206;-51
2023/08/04 11:20:13;;;;;;;2.90;1.53;;;22.40;99.90;;;;;;5116872;28;20186;-50
2023/08/04 11:22:46;;;;;;;3.27;1.43;;;22.60;99.90;;;;;;5098094;28;20174;-50
2023/08/04 11:25:14;;;;;;;3.53;1.40;;;22.90;99.90;;;;;;5098420;28;20543;-50
2023/08/04 11:27:41;;;;;;;3.63;1.73;;;22.90;99.90;;;;;;5098556;28;20257;-52
2023/08/04 11:30:11;;;;;;;3.30;1.40;;;22.70;99.90;;;;;;5116650;28;20166;-51
2023/08/04 11:32:37;;;;;;;3.50;1.63;;;22.40;99.90;;;;;;5116807;28;20174;-51
2023/08/04 11:35:03;;;;;;;5.17;1.60;;;22.40;99.90;;;;;;5116522;28;20201;-45
2023/08/04 11:37:29;;;;;;;2.47;1.57;;;22.30;99.90;;;;;;5098024;28;20206;-45
2023/08/04 11:39:55;;;;;;;1.83;1.50;;;22.50;99.90;;;;;;5098763;28;20269;-46
2023/08/04 11:42:21;;;;;;;2.87;1.60;;;22.70;99.90;;;;;;5117723;28;20181;-47
2023/08/04 11:44:47;;;;;;;3.50;1.37;;;22.90;99.90;;;;;;5099189;28;20206;-52
2023/08/04 11:47:14;;;;;;;2.60;1.53;;;23.10;99.90;;;;;;5098807;28;20206;-51
2023/08/04 11:49:41;;;;;;;2.90;1.80;;;23.30;99.90;;;;;;5098452;28;20186;-46
2023/08/04 11:52:11;;;;;;;4.70;1.67;;;23.50;99.90;;;;;;5099795;28;20186;-52
2023/08/04 11:54:51;;;;;;;3.30;1.63;;;23.60;99.90;;;;;;5118504;28;20187;-53
2023/08/04 11:57:18;;;;;;;5.70;2.17;;;23.60;99.90;;;;;;5100881;28;20610;-46
2023/08/04 11:59:48;;;;;;;4.00;1.80;;;23.40;99.90;;;;;;5084875;28;20190;-50
2023/08/04 12:02:13;;;;;;;3.53;1.70;;;23.30;99.90;;;;;;5116822;28;20179;-52
2023/08/04 12:04:39;;;;;;;2.83;1.63;;;23.30;99.90;;;;;;5099260;28;20301;-48
2023/08/04 12:07:06;;;;;;;2.40;1.50;;;23.50;99.90;;;;;;5117347;28;20245;-46
2023/08/04 12:09:33;;;;;;;2.50;1.50;;;23.60;99.90;;;;;;5117410;28;20626;-53
2023/08/04 12:11:59;;;;;;;2.27;1.50;;;23.70;99.90;;;;;;5117285;28;20189;-47
2023/08/04 12:14:25;;;;;;;1.97;1.50;;;23.80;99.90;;;;;;5113618;28;20228;-46
2023/08/04 12:17:02;;;;;;;2.60;1.50;;;23.80;99.90;;;;;;5091919;28;20238;-52
2023/08/04 12:19:30;;;;;;;3.30;1.03;;;23.90;99.90;;;;;;5087709;28;20198;-46
2023/08/04 12:21:59;;;;;;;2.70;1.30;;;23.80;99.90;;;;;;5112687;28;20194;-46
2023/08/04 12:24:28;;;;;;;3.70;1.43;;;23.80;99.90;;;;;;5115571;28;20201;-47
2023/08/04 12:26:57;;;;;;;4.97;1.40;;;23.70;99.90;;;;;;5113778;28;20210;-52
2023/08/04 12:29:27;;;;;;;1.57;1.30;;;23.80;99.90;;;;;;5114678;28;20276;-53
2023/08/04 12:32:07;;;;;;;2.93;1.47;;;23.80;99.90;;;;;;5098394;28;20182;-46
2023/08/04 12:34:35;;;;;;;2.47;1.43;;;23.80;99.90;;;;;;5095774;28;20190;-46
2023/08/04 12:37:01;;;;;;;1.60;1.27;;;23.80;99.90;;;;;;5079273;28;20553;-50
2023/08/04 12:39:33;;;;;;;3.37;1.30;;;23.80;99.90;;;;;;5096939;28;20190;-53
2023/08/04 12:42:00;;;;;;;4.07;2.10;;;23.90;99.90;;;;;;5079582;28;20213;-46
2023/08/04 12:44:27;;;;;;;1.60;1.00;;;24.00;99.90;;;;;;5092987;28;20226;-53
2023/08/04 12:47:10;;;;;;;2.83;1.40;;;24.10;99.90;;;;;;5095240;28;20214;-51
2023/08/04 12:49:36;;;;;;;4.57;1.40;;;24.20;99.90;;;;;;5083160;28;20186;-47
2023/08/04 12:52:04;;;;;;;1.97;1.20;;;24.40;99.90;;;;;;5115151;28;20550;-46
2023/08/04 12:54:32;;;;;;;2.70;1.47;;;24.50;99.90;;;;;;5115417;28;20197;-46
2023/08/04 12:57:00;;;;;;;1.83;1.57;;;24.50;99.90;;;;;;5097481;28;20531;-52
2023/08/04 12:59:47;;;;;;;3.60;1.57;;;24.60;99.90;;;;;;5098057;28;20192;-47
2023/08/04 13:02:13;;;;;;;5.07;1.80;;;24.60;99.90;;;;;;5063501;28;20202;-47
2023/08/04 13:04:51;;;;;;;2.57;1.60;;;24.80;99.90;;;;;;5095526;28;20294;-47
2023/08/04 13:07:29;;;;;;;2.90;1.70;;;24.80;99.90;;;;;;5093655;28;20697;-47
2023/08/04 13:10:18;;;;;;;1.58;1.38;;;24.80;99.90;;;;;;5079392;28;20273;-52
2023/08/04 13:12:55;;;;;;;3.67;1.80;;;24.80;99.90;;;;;;5113683;28;20190;-47
2023/08/04 13:15:28;;;;;;;4.70;1.97;;;24.80;99.90;;;;;;5112644;28;20185;-47
2023/08/04 13:21:45;;;;;;;2.77;1.60;;;24.90;99.90;;;;;;5116625;28;20196;-47
2023/08/04 13:24:26;;;;;;;2.07;1.63;;;25.00;99.90;;;;;;5051221;28;20226;-45
2023/08/04 13:58:52;;;;;;;4.68;1.42;;;24.40;99.90;;;;;;5093106;28;20254;-46
2023/08/04 14:01:18;;;;;;;1.42;1.30;;;24.00;99.90;;;;;;5075335;28;20175;-45
2023/08/04 14:03:44;;;;;;;2.45;1.30;;;23.70;99.90;;;;;;5091998;28;20252;-45
2023/08/04 14:06:10;;;;;;;2.75;1.10;;;23.50;99.90;;;;;;5093439;28;20241;-47
2023/08/04 14:08:54;;;;;;;1.83;1.30;;;23.40;99.90;;;;;;5092451;28;20195;-47
2023/08/04 14:11:21;;;;;;;1.80;1.00;;;23.10;99.90;;;;;;5093272;28;20232;-46
2023/08/04 14:13:49;;;;;;;1.83;1.23;;;22.80;99.90;;;;;;5091911;28;20215;-45
2023/08/04 14:16:15;;;;;;;1.70;1.30;;;22.60;99.90;;;;;;5091973;28;20313;-47
2023/08/04 14:18:42;;;;;;;3.45;1.50;;;22.20;99.90;;;;;;5093632;28;20209;-46
2023/08/04 14:21:08;;;;;;;2.50;1.10;;;22.00;99.90;;;;;;5095729;28;20268;-45
2023/08/04 14:23:35;;;;;;;6.30;1.47;;;21.80;99.90;;;;;;5095668;28;20344;-46
2023/08/04 14:26:02;;;;;;;3.90;1.23;;;21.80;99.90;;;;;;5078767;28;20671;-45
2023/08/04 14:28:28;;;;;;;1.60;1.10;;;21.60;99.90;;;;;;5062446;28;20175;-45
2023/08/04 14:30:56;;;;;;;2.43;1.10;;;21.60;99.90;;;;;;5097026;28;20260;-45
2023/08/04 14:33:29;;;;;;;2.10;1.10;;;21.50;99.90;;;;;;5097468;28;20659;-45
2023/08/04 14:35:55;;;;;;;1.70;1.10;;;21.40;99.90;;;;;;5062470;28;20286;-46
2023/08/04 14:38:23;;;;;;;4.23;1.13;;;21.30;99.90;;;;;;5096787;28;20277;-46
2023/08/04 14:40:49;;;;;;;2.07;1.30;;;21.10;99.90;;;;;;5062276;28;20760;-46
2023/08/04 14:43:16;;;;;;;2.50;1.50;;;21.00;99.90;;;;;;5095157;28;20210;-46
2023/08/04 14:45:42;;;;;;;6.03;2.03;;;20.90;99.90;;;;;;5095294;28;20220;-47
2023/08/04 14:48:28;;;;;;;7.47;2.20;;;20.60;99.90;;;;;;5095210;28;20190;-44
2023/08/04 14:50:53;;;;;;;4.43;1.33;;;20.10;99.90;;;;;;5095181;28;20214;-46
2023/08/04 14:53:38;;;;;;;6.73;2.07;;;19.50;99.90;;;;;;5097048;28;20236;-46
2023/08/04 14:56:10;;;;;;;6.30;2.00;;;18.90;99.90;;;;;;5095198;28;20217;-46
2023/08/04 14:58:46;;;;;;;4.60;1.30;;;18.40;99.90;;;;;;5078592;28;20191;-46
2023/08/04 15:01:57;;;;;;;2.50;1.23;;;18.00;99.90;;;;;;5078748;28;20216;-46
2023/08/04 15:04:40;;;;;;;6.10;1.50;;;17.80;99.90;;;;;;5074138;28;20221;-46
2023/08/04 15:07:43;;;;;;;2.97;1.20;;;17.70;99.90;;;;;;5046736;28;20234;-45
2023/08/04 15:10:35;;;;;;;4.17;1.40;;;17.90;99.90;;;;;;5082302;28;20265;-45
2023/08/04 15:41:27;;;;;;;2.53;1.10;;;18.60;99.90;;;;;;4996538;28;20546;-45
2023/08/04 15:44:16;;;;;;;2.53;1.13;;;18.90;99.90;;;;;;5018553;28;20299;-45
2023/08/04 15:47:01;;;;;;;5.20;2.03;;;19.00;99.90;;;;;;5043844;28;20213;-44